Long Sault, Canada
Current Conditions -  °F | °C
As of 6:53 AM on Monday 22 Dec 2014 (Local Time) from KMSS Reporting Station
Haze Haze  
Wind Chill:   Ceiling: 600
Heat Index: 17°   Visibility: 5mi
Dew Point: 14°   Wind: 6mph
Humidity: 88%   Direction: 80°E
Pressure: 30.41"   Gusts: NA
Location:  45.03°N, 74.9°W
Report Text: KMSS 221153Z AUTO 08005KT 5SM BR OVC006 M08/M10 A3041 RMK AO2 SLP305 I6000 T10831100 11083 21094 50005
Loading
Personal Weather Stations






























Interactive Weather Map New forecast layout! Learn more

10-Day Weather Forecast

Advertisements
Track Severe Weather on mobile